Time;durP1;ratioP1;P1;durP2;ratioP2;P2;SDS_P1;SDS_P2;PMS_P1;PMS_P2;Temp;Humidity;BMP_temperature;BMP_pressure;BME280_temperature;BME280_humidity;BME280_pressure;Samples;Min_cycle;Max_cycle;Signal;HPM_P1;HPM_P2
2022/03/15 00:00:27;;;;;;;12.63;6.77;;;;;;;2.75;66.20;96179.97;5017084;28;20225;-61
2022/03/15 00:02:54;;;;;;;12.17;6.67;;;;;;;2.65;66.32;96173.59;5035244;28;20224;-63
2022/03/15 00:05:20;;;;;;;10.07;6.90;;;;;;;2.57;65.92;96165.47;5034841;28;20245;-61
2022/03/15 00:07:47;;;;;;;16.70;7.23;;;;;;;2.55;66.18;96167.19;5035212;28;20296;-62
2022/03/15 00:10:13;;;;;;;11.97;7.47;;;;;;;2.40;67.03;96160.94;5034736;28;20194;-65
2022/03/15 00:12:39;;;;;;;14.63;7.90;;;;;;;2.44;65.58;96174.22;5017090;28;20186;-62
2022/03/15 00:15:08;;;;;;;12.17;7.47;;;;;;;2.38;66.44;96165.16;5016796;28;20178;-62
2022/03/15 00:17:37;;;;;;;15.40;8.23;;;;;;;2.48;65.69;96171.56;5035099;28;20273;-62
2022/03/15 00:20:15;;;;;;;14.13;8.60;;;;;;;2.61;64.27;96189.59;5016803;28;20727;-65
2022/03/15 00:22:42;;;;;;;17.43;9.20;;;;;;;2.56;64.55;96192.25;5023504;23;20198;-61
2022/03/15 00:25:09;;;;;;;13.50;8.60;;;;;;;2.47;65.77;96171.63;5034283;28;20706;-61
2022/03/15 00:27:36;;;;;;;16.57;9.17;;;;;;;2.47;66.24;96169.09;5034826;28;20289;-62
2022/03/15 00:30:04;;;;;;;16.50;8.40;;;;;;;2.45;65.77;96161.63;5034467;28;20186;-62
2022/03/15 00:32:30;;;;;;;14.17;8.03;;;;;;;2.51;66.78;96153.09;5034367;28;20700;-63
2022/03/15 00:34:55;;;;;;;14.07;8.83;;;;;;;2.62;66.84;96168.66;5034285;28;20270;-61
2022/03/15 00:37:21;;;;;;;12.73;8.90;;;;;;;2.86;65.11;96175.47;5034579;28;20186;-61
2022/03/15 00:39:46;;;;;;;14.87;8.80;;;;;;;2.91;66.23;96153.53;5034116;28;20248;-61
2022/03/15 00:42:12;;;;;;;11.87;7.97;;;;;;;2.57;67.65;96145.38;5034479;28;20198;-61
2022/03/15 00:44:38;;;;;;;17.93;8.93;;;;;;;2.66;67.85;96151.81;5034008;28;20296;-60
2022/03/15 00:47:05;;;;;;;14.43;9.23;;;;;;;2.73;67.00;96159.13;5034101;28;20195;-62
2022/03/15 00:49:30;;;;;;;16.83;9.67;;;;;;;2.46;67.59;96140.66;5034102;28;20198;-65
2022/03/15 00:51:56;;;;;;;19.83;8.97;;;;;;;2.36;68.45;96138.50;5033756;28;20213;-66
2022/03/15 00:54:22;;;;;;;15.07;8.43;;;;;;;2.50;67.11;96149.75;5034018;28;20658;-62
2022/03/15 00:56:48;;;;;;;18.63;9.30;;;;;;;2.28;68.39;96128.66;5033841;28;20656;-62
2022/03/15 00:59:15;;;;;;;14.80;8.07;;;;;;;2.24;68.74;96127.09;5034341;28;20183;-62
2022/03/15 01:01:41;;;;;;;17.70;8.60;;;;;;;2.54;67.36;96142.97;5033750;28;20274;-62
2022/03/15 01:04:07;;;;;;;17.50;9.00;;;;;;;2.34;66.79;96147.75;5033582;28;20230;-60
2022/03/15 01:06:32;;;;;;;14.17;7.87;;;;;;;2.05;67.30;96131.03;5032884;28;20228;-63
2022/03/15 01:08:58;;;;;;;14.63;8.37;;;;;;;2.05;65.80;96141.06;5034290;28;20181;-64
2022/03/15 01:11:23;;;;;;;14.23;7.60;;;;;;;2.02;66.20;96137.81;5033985;28;20198;-61
2022/03/15 01:13:49;;;;;;;14.17;7.60;;;;;;;1.98;65.47;96141.28;5039308;23;20307;-61
2022/03/15 01:16:14;;;;;;;12.27;6.80;;;;;;;2.15;63.98;96165.00;5014858;28;20212;-62
2022/03/15 01:18:40;;;;;;;12.57;6.00;;;;;;;2.02;62.44;96188.75;5032553;28;20177;-61
2022/03/15 01:21:07;;;;;;;10.27;6.17;;;;;;;1.73;63.22;96172.84;5032393;28;20198;-60
2022/03/15 01:23:32;;;;;;;12.73;5.87;;;;;;;1.50;62.32;96191.81;5032661;28;20293;-62
2022/03/15 01:25:58;;;;;;;8.20;5.43;;;;;;;1.41;62.86;96176.19;5014991;28;20323;-64
2022/03/15 01:28:24;;;;;;;9.60;4.97;;;;;;;1.13;63.04;96166.00;5032317;28;20643;-61
2022/03/15 01:30:50;;;;;;;11.53;5.30;;;;;;;0.99;63.08;96163.00;5014598;28;20672;-61
2022/03/15 01:33:16;;;;;;;7.73;4.87;;;;;;;0.93;65.30;96140.63;4749812;23;8326759;-61
2022/03/15 01:35:42;;;;;;;11.40;5.67;;;;;;;0.94;65.19;96136.44;5033303;28;20198;-62
2022/03/15 01:38:08;;;;;;;8.93;4.93;;;;;;;0.78;64.99;96151.84;5015697;28;20613;-63
2022/03/15 01:40:34;;;;;;;7.20;4.90;;;;;;;0.96;63.93;96163.09;5033425;28;20206;-61
2022/03/15 01:42:59;;;;;;;9.57;4.93;;;;;;;0.88;64.05;96154.94;5033403;28;20206;-62
2022/03/15 01:45:34;;;;;;;7.37;4.73;;;;;;;0.96;63.99;96164.75;5015238;28;20202;-64
2022/03/15 01:47:59;;;;;;;14.43;6.00;;;;;;;1.02;63.77;96167.94;5033015;28;20255;-61
2022/03/15 01:50:25;;;;;;;9.00;4.47;;;;;;;1.05;63.54;96172.06;5033065;28;20622;-64
2022/03/15 01:52:51;;;;;;;12.30;6.07;;;;;;;0.93;63.51;96183.16;5033506;28;20269;-62
2022/03/15 01:55:16;;;;;;;9.37;5.23;;;;;;;0.82;63.68;96185.09;5015016;28;20208;-61
2022/03/15 01:57:42;;;;;;;9.13;5.70;;;;;;;0.75;64.60;96171.06;5033260;28;20183;-61
2022/03/15 02:00:08;;;;;;;7.73;4.67;;;;;;;0.77;64.13;96176.88;5033004;28;20281;-65
2022/03/15 02:02:34;;;;;;;11.43;5.13;;;;;;;0.91;63.39;96179.88;5031685;28;20294;-65
2022/03/15 02:05:00;;;;;;;8.17;4.87;;;;;;;0.96;63.87;96185.63;5032691;28;20251;-61
2022/03/15 02:07:25;;;;;;;9.63;4.83;;;;;;;1.25;62.96;96200.75;5015184;28;20324;-61
2022/03/15 02:09:51;;;;;;;10.00;5.23;;;;;;;1.35;62.65;96201.38;5032724;28;20182;-65
2022/03/15 02:12:17;;;;;;;8.20;5.03;;;;;;;1.31;62.45;96192.31;5033130;28;20187;-61
2022/03/15 02:14:42;;;;;;;10.10;5.07;;;;;;;1.27;63.16;96183.22;5032571;28;20178;-64
2022/03/15 02:17:08;;;;;;;11.67;5.27;;;;;;;1.00;63.16;96179.69;5014434;28;20210;-61
2022/03/15 02:19:35;;;;;;;7.17;4.97;;;;;;;0.98;63.47;96175.56;5032581;28;20170;-65
2022/03/15 02:22:01;;;;;;;12.43;4.63;;;;;;;0.88;64.60;96154.94;5032591;28;20225;-62
2022/03/15 02:24:26;;;;;;;10.23;4.97;;;;;;;0.95;64.04;96176.44;5032385;28;20209;-65
2022/03/15 02:26:52;;;;;;;8.67;4.53;;;;;;;0.83;63.87;96161.72;5032602;28;20663;-62
2022/03/15 02:29:22;;;;;;;9.00;4.70;;;;;;;0.85;64.60;96142.47;5038890;23;20233;-62
2022/03/15 02:31:48;;;;;;;10.93;5.50;;;;;;;0.53;65.22;96133.22;5032453;28;20201;-61
2022/03/15 02:34:16;;;;;;;10.90;6.17;;;;;;;0.43;65.87;96119.25;5032826;28;20186;-61
2022/03/15 02:36:42;;;;;;;9.57;5.60;;;;;;;0.32;66.79;96108.69;5014607;28;20668;-64
2022/03/15 02:39:08;;;;;;;10.77;5.47;;;;;;;0.34;66.31;96101.97;5032217;28;20260;-66
2022/03/15 02:41:33;;;;;;;10.37;5.97;;;;;;;0.27;67.01;96100.44;5032195;28;20194;-61
2022/03/15 02:43:59;;;;;;;10.77;5.70;;;;;;;0.22;67.36;96091.41;5031930;28;20580;-60
2022/03/15 02:46:31;;;;;;;9.73;5.40;;;;;;;0.22;67.25;96097.25;5032360;28;20212;-64
2022/03/15 02:48:57;;;;;;;11.27;6.20;;;;;;;0.18;66.97;96094.84;5014385;28;20186;-65
2022/03/15 02:51:24;;;;;;;9.50;5.13;;;;;;;0.21;67.13;96122.25;5032356;28;20210;-65
2022/03/15 02:53:52;;;;;;;10.43;5.27;;;;;;;0.18;66.11;96122.34;5032370;28;20664;-61
2022/03/15 02:56:19;;;;;;;7.80;5.00;;;;;;;0.21;66.76;96105.59;5014049;28;20194;-61
2022/03/15 02:58:44;;;;;;;9.07;5.73;;;;;;;0.38;66.55;96118.56;5032514;28;20194;-61
2022/03/15 03:01:10;;;;;;;10.10;5.00;;;;;;;0.31;66.58;96106.19;5014222;28;20201;-62
2022/03/15 03:03:36;;;;;;;9.60;4.87;;;;;;;0.51;66.28;96126.59;5031740;28;20702;-61
2022/03/15 03:06:03;;;;;;;8.03;4.70;;;;;;;0.72;66.09;96119.44;5031867;28;20679;-61
2022/03/15 03:08:30;;;;;;;8.23;5.50;;;;;;;0.71;66.19;96114.44;5014306;28;20186;-61
2022/03/15 03:10:56;;;;;;;8.77;5.00;;;;;;;0.71;65.15;96124.47;5039480;23;20682;-61
2022/03/15 03:13:25;;;;;;;7.47;4.50;;;;;;;0.92;65.24;96136.50;5031543;28;20281;-64
2022/03/15 03:15:55;;;;;;;9.13;4.43;;;;;;;1.10;62.87;96158.59;5014030;28;20668;-61
2022/03/15 03:18:21;;;;;;;9.97;5.20;;;;;;;1.03;64.24;96141.25;5031784;28;20201;-61
2022/03/15 03:20:47;;;;;;;8.13;5.00;;;;;;;1.10;64.21;96146.06;5032176;28;20644;-64
2022/03/15 03:23:14;;;;;;;6.03;4.13;;;;;;;1.13;64.07;96137.66;5013915;28;20264;-61
2022/03/15 03:25:41;;;;;;;8.17;4.97;;;;;;;1.14;64.61;96130.09;5031484;28;20222;-62
2022/03/15 03:28:08;;;;;;;10.20;5.67;;;;;;;1.06;63.11;96144.50;5031694;28;20258;-62
2022/03/15 03:30:37;;;;;;;10.20;5.03;;;;;;;0.95;63.42;96133.91;5034388;28;20206;-64
2022/03/15 03:33:03;;;;;;;12.23;5.10;;;;;;;0.43;64.70;96109.25;5035640;28;20182;-63
2022/03/15 03:35:30;;;;;;;9.93;5.40;;;;;;;-0.03;67.04;96069.44;5035815;28;20217;-64
2022/03/15 03:37:55;;;;;;;10.17;5.80;;;;;;;-0.20;69.35;96051.47;5035611;28;20562;-63
2022/03/15 03:40:21;;;;;;;9.63;5.70;;;;;;;-0.20;70.72;96043.97;5035810;28;20210;-64
2022/03/15 03:42:46;;;;;;;10.87;7.30;;;;;;;-0.37;72.67;96038.50;5035509;28;20227;-63
2022/03/15 03:45:12;;;;;;;14.93;8.27;;;;;;;-0.28;72.96;96055.78;5017418;28;20208;-62
2022/03/15 03:47:37;;;;;;;11.87;7.07;;;;;;;-0.07;73.01;96057.88;5035520;28;20178;-61
2022/03/15 03:50:04;;;;;;;13.40;8.10;;;;;;;0.02;73.87;96048.53;5035417;28;20178;-63
2022/03/15 03:52:30;;;;;;;15.93;9.83;;;;;;;0.08;73.99;96053.38;5035423;28;20299;-62
2022/03/15 03:54:55;;;;;;;19.97;11.83;;;;;;;0.03;75.71;96058.47;5017108;28;20272;-61
2022/03/15 03:57:21;;;;;;;24.90;12.60;;;;;;;0.11;75.57;96079.13;5035249;28;20558;-63
2022/03/15 03:59:46;;;;;;;22.83;12.73;;;;;;;0.21;75.65;96087.25;5035117;28;20259;-61
2022/03/15 04:02:12;;;;;;;22.43;12.43;;;;;;;0.27;75.07;96102.13;5035473;28;20193;-62
2022/03/15 04:04:37;;;;;;;25.23;12.53;;;;;;;0.31;75.36;96107.03;5017211;28;20745;-61
2022/03/15 04:07:08;;;;;;;23.97;10.97;;;;;;;0.43;74.62;96121.75;5035500;28;20249;-62
2022/03/15 04:09:33;;;;;;;19.37;10.77;;;;;;;0.54;74.87;96122.38;5035124;28;20162;-63
2022/03/15 04:11:59;;;;;;;21.37;11.50;;;;;;;0.69;72.99;96153.69;5035345;28;20609;-64
2022/03/15 04:14:25;;;;;;;20.97;11.00;;;;;;;0.75;72.31;96158.56;5016938;28;20174;-61
2022/03/15 04:16:51;;;;;;;17.13;10.77;;;;;;;0.81;70.74;96179.28;5016920;28;20695;-62
2022/03/15 04:19:16;;;;;;;11.47;7.83;;;;;;;0.74;70.14;96181.97;5035010;28;20574;-61
2022/03/15 04:21:42;;;;;;;11.70;7.20;;;;;;;0.75;68.92;96198.59;5034567;28;20214;-61
2022/03/15 04:24:07;;;;;;;9.27;5.70;;;;;;;0.70;68.52;96206.22;5034389;28;20271;-61
2022/03/15 04:26:32;;;;;;;10.50;6.17;;;;;;;0.73;68.18;96211.16;5035313;28;20198;-61
2022/03/15 04:28:58;;;;;;;10.07;5.70;;;;;;;0.69;68.38;96198.72;5035166;28;20272;-61
2022/03/15 04:31:23;;;;;;;9.37;5.70;;;;;;;0.65;68.34;96202.16;5035131;28;20572;-61
2022/03/15 04:33:50;;;;;;;9.27;5.73;;;;;;;0.64;68.60;96193.84;5034850;28;20210;-60
2022/03/15 04:36:15;;;;;;;12.13;6.47;;;;;;;0.97;68.43;96201.47;5017043;28;20210;-63
2022/03/15 04:38:42;;;;;;;14.10;7.37;;;;;;;0.89;68.74;96191.59;5034517;28;20182;-63
2022/03/15 04:41:07;;;;;;;12.07;6.73;;;;;;;0.76;69.83;96176.06;5034653;28;20199;-61
2022/03/15 04:43:33;;;;;;;16.33;7.07;;;;;;;0.85;69.76;96180.84;5016667;28;20198;-65
2022/03/15 04:45:59;;;;;;;13.80;7.50;;;;;;;0.83;69.08;96189.25;5016618;28;20222;-62
2022/03/15 04:48:25;;;;;;;16.70;8.30;;;;;;;0.95;68.94;96203.19;5016408;28;20617;-62
2022/03/15 04:50:51;;;;;;;19.87;9.17;;;;;;;1.02;68.88;96193.00;5016572;28;20212;-60
2022/03/15 04:53:18;;;;;;;14.83;8.23;;;;;;;1.01;68.95;96188.03;5033029;28;20179;-61
2022/03/15 04:55:43;;;;;;;20.47;8.70;;;;;;;0.80;69.36;96181.81;5016477;28;20202;-61
2022/03/15 04:58:09;;;;;;;17.13;7.97;;;;;;;0.79;69.43;96190.16;5034589;28;20220;-60
2022/03/15 05:00:34;;;;;;;22.80;8.40;;;;;;;0.83;69.56;96181.72;5034034;28;20684;-65
2022/03/15 05:03:00;;;;;;;19.83;8.37;;;;;;;0.85;68.98;96185.84;5034130;28;20221;-61
2022/03/15 05:05:26;;;;;;;12.33;7.30;;;;;;;0.82;70.23;96175.09;5033921;28;20683;-64
2022/03/15 05:07:51;;;;;;;15.63;6.90;;;;;;;0.63;69.67;96171.34;5016188;28;20198;-62
2022/03/15 05:13:01;;;;;;;14.93;8.23;;;;;;;0.56;70.14;96175.69;5034941;28;20194;-61
2022/03/15 05:15:27;;;;;;;24.73;10.40;;;;;;;0.56;69.95;96179.84;5033892;28;20202;-62
2022/03/15 05:17:52;;;;;;;21.97;9.53;;;;;;;0.00;72.96;96136.84;5033959;28;20596;-63
2022/03/15 05:20:18;;;;;;;22.00;10.97;;;;;;;0.29;72.60;96148.75;5033435;28;20293;-60
2022/03/15 05:22:44;;;;;;;24.87;11.80;;;;;;;0.22;73.00;96136.41;5033916;28;20215;-62
2022/03/15 05:25:13;;;;;;;25.97;13.70;;;;;;;0.40;73.82;96136.03;5033523;28;20680;-64
2022/03/15 05:27:40;;;;;;;32.57;15.50;;;;;;;0.33;75.45;96114.50;5033373;28;20189;-62
2022/03/15 05:30:06;;;;;;;33.57;16.33;;;;;;;0.37;76.44;96121.06;5015683;28;20313;-66
2022/03/15 05:32:32;;;;;;;38.00;18.77;;;;;;;0.47;76.40;96122.50;5015473;28;20189;-63
2022/03/15 05:34:58;;;;;;;36.53;18.60;;;;;;;0.46;77.95;96125.88;5033218;28;20190;-63
2022/03/15 05:37:23;;;;;;;34.03;18.13;;;;;;;0.38;78.27;96128.56;5033536;28;20639;-64
2022/03/15 05:39:49;;;;;;;34.77;19.03;;;;;;;0.52;78.20;96128.25;5033231;28;20232;-62
2022/03/15 05:42:17;;;;;;;40.17;19.37;;;;;;;0.76;82.19;96138.53;5015855;28;20273;-64
2022/03/15 05:44:42;;;;;;;37.47;18.37;;;;;;;1.08;75.83;96202.03;5033449;28;20202;-66
2022/03/15 05:47:08;;;;;;;35.60;19.63;;;;;;;0.99;76.06;96183.03;5015889;28;20620;-62
2022/03/15 05:49:34;;;;;;;33.97;17.93;;;;;;;0.91;76.88;96171.56;5033082;28;20214;-66
2022/03/15 05:51:59;;;;;;;26.87;15.67;;;;;;;1.21;84.90;96128.28;5014986;28;20611;-62
2022/03/15 05:54:25;;;;;;;24.33;14.00;;;;;;;2.48;100.00;96155.72;5059219;23;20774;-70
2022/03/15 05:56:50;;;;;;;37.33;19.80;;;;;;;2.95;100.00;96160.09;5068965;23;20642;-62
2022/03/15 05:59:16;;;;;;;28.60;16.33;;;;;;;4.31;100.00;96160.50;5015177;28;20179;-64
2022/03/15 06:01:41;;;;;;;31.20;19.40;;;;;;;5.39;100.00;96155.50;5033205;28;20213;-63
2022/03/15 06:04:09;;;;;;;34.60;19.97;;;;;;;4.99;98.04;96362.03;5015009;28;20202;-64
2022/03/15 06:06:34;;;;;;;33.90;19.30;;;;;;;4.74;87.67;96430.09;5015391;28;20225;-64
2022/03/15 06:09:00;;;;;;;35.50;19.77;;;;;;;4.15;86.63;96394.28;5014981;28;20180;-66
2022/03/15 06:11:26;;;;;;;31.10;20.10;;;;;;;3.49;83.57;96360.31;5032939;28;20274;-62
2022/03/15 06:13:51;;;;;;;41.07;21.83;;;;;;;3.08;84.36;96343.94;5032847;28;20180;-64
2022/03/15 06:16:17;;;;;;;33.03;19.23;;;;;;;3.13;77.42;96352.97;5014972;28;20657;-68
2022/03/15 06:18:42;;;;;;;33.07;19.10;;;;;;;3.08;76.95;96334.72;5014957;28;20636;-64
2022/03/15 06:21:08;;;;;;;33.47;20.20;;;;;;;2.75;78.44;96285.41;5032966;28;20255;-66
2022/03/15 06:23:34;;;;;;;36.73;19.53;;;;;;;2.48;77.98;96278.66;5032742;28;20206;-63
2022/03/15 06:25:59;;;;;;;33.23;20.47;;;;;;;2.64;79.00;96259.81;5014825;28;20209;-64
2022/03/15 06:28:25;;;;;;;33.40;20.23;;;;;;;2.52;77.48;96296.09;5014932;28;20182;-67
2022/03/15 06:30:51;;;;;;;41.20;22.10;;;;;;;2.36;78.93;96247.19;5032489;28;20202;-66
2022/03/15 06:33:16;;;;;;;28.93;17.80;;;;;;;2.48;78.41;96266.94;5032615;28;20708;-67
2022/03/15 06:35:42;;;;;;;32.87;18.33;;;;;;;2.58;77.63;96280.06;5032395;28;20231;-64
2022/03/15 06:38:09;;;;;;;33.70;18.63;;;;;;;2.46;77.12;96297.97;5014784;28;20244;-63
2022/03/15 06:40:35;;;;;;;31.97;19.43;;;;;;;2.48;78.71;96251.06;5038736;23;20230;-63
2022/03/15 06:43:02;;;;;;;30.63;18.30;;;;;;;2.64;77.89;96276.56;5032413;28;20175;-62
2022/03/15 06:45:28;;;;;;;35.17;18.70;;;;;;;2.73;74.57;96339.88;5014417;28;20301;-67
2022/03/15 06:47:54;;;;;;;37.80;21.13;;;;;;;2.54;77.55;96286.03;5032366;28;20268;-65
2022/03/15 06:50:19;;;;;;;35.80;21.67;;;;;;;2.56;78.15;96260.00;5031866;28;20264;-67
2022/03/15 06:52:46;;;;;;;40.33;20.40;;;;;;;2.64;76.97;96289.09;5038304;23;20218;-63
2022/03/15 06:55:13;;;;;;;42.20;22.13;;;;;;;2.76;78.52;96251.09;5038262;23;20205;-67
2022/03/15 06:57:39;;;;;;;47.63;24.50;;;;;;;2.90;76.71;96290.03;5078758;23;20344;-67
2022/03/15 07:00:07;;;;;;;53.27;26.17;;;;;;;3.14;77.11;96288.47;5038262;23;20538;-68
2022/03/15 07:02:33;;;;;;;56.60;26.97;;;;;;;3.37;78.17;96268.53;5045062;23;20237;-64
2022/03/15 07:04:58;;;;;;;57.93;26.50;;;;;;;3.24;76.55;96303.25;5031147;28;20271;-68
2022/03/15 07:07:24;;;;;;;49.77;26.17;;;;;;;3.30;79.33;96239.41;5032226;28;20197;-63
2022/03/15 07:09:49;;;;;;;53.00;26.20;;;;;;;3.50;80.92;96227.03;5038271;23;21302;-67
2022/03/15 07:12:16;;;;;;;45.93;25.03;;;;;;;3.29;78.68;96273.75;5016995;23;20234;-62
2022/03/15 07:14:43;;;;;;;45.50;24.20;;;;;;;3.50;77.90;96272.28;5011969;28;20182;-63
2022/03/15 07:17:08;;;;;;;50.07;22.37;;;;;;;3.69;75.77;96343.75;5042954;23;20230;-64
2022/03/15 07:19:34;;;;;;;41.07;20.43;;;;;;;3.62;77.39;96266.03;5031980;28;20175;-66
2022/03/15 07:21:59;;;;;;;45.93;21.40;;;;;;;3.67;75.95;96322.88;5032180;28;20285;-62
2022/03/15 07:24:25;;;;;;;43.93;24.10;;;;;;;3.57;76.73;96296.38;5031839;28;20220;-69
2022/03/15 07:26:50;;;;;;;46.10;25.93;;;;;;;3.72;78.75;96262.34;5032119;28;20281;-66
2022/03/15 07:29:15;;;;;;;44.53;23.90;;;;;;;3.85;79.03;96259.41;5031641;28;20175;-63
2022/03/15 07:31:41;;;;;;;50.53;25.57;;;;;;;3.80;74.77;96339.22;5013925;28;20211;-64
2022/03/15 07:34:06;;;;;;;52.97;26.63;;;;;;;3.83;74.45;96330.75;5031711;28;20192;-69
2022/03/15 07:36:35;;;;;;;52.33;25.23;;;;;;;3.99;75.60;96325.19;5031398;28;20215;-67
2022/03/15 07:39:03;;;;;;;56.87;26.83;;;;;;;3.77;74.32;96361.13;5031385;28;20182;-67
2022/03/15 07:41:29;;;;;;;50.37;25.47;;;;;;;3.88;74.52;96347.34;5037852;23;20237;-70
2022/03/15 07:43:54;;;;;;;54.90;26.50;;;;;;;3.97;75.92;96300.94;5031568;28;20225;-67
2022/03/15 07:46:20;;;;;;;57.20;26.67;;;;;;;4.04;77.66;96265.47;5065502;23;20316;-64
2022/03/15 07:48:45;;;;;;;52.83;25.87;;;;;;;4.13;78.53;96254.28;5051445;28;20290;-66
2022/03/15 07:51:11;;;;;;;45.70;24.90;;;;;;;4.28;77.92;96258.81;5051723;28;20205;-66
2022/03/15 07:53:36;;;;;;;38.97;23.63;;;;;;;4.52;75.32;96308.31;5049989;28;20276;-66
2022/03/15 07:56:03;;;;;;;52.00;26.13;;;;;;;4.43;74.43;96335.47;5049921;28;20242;-70
2022/03/15 07:58:29;;;;;;;54.17;25.10;;;;;;;4.48;73.22;96358.81;5051407;28;20233;-66
2022/03/15 08:00:56;;;;;;;49.53;26.67;;;;;;;4.55;73.50;96343.44;5051221;28;20285;-66
2022/03/15 08:03:23;;;;;;;53.47;24.93;;;;;;;4.65;74.45;96324.63;5051138;28;20198;-67
2022/03/15 08:05:50;;;;;;;42.60;24.20;;;;;;;4.82;72.93;96362.66;5050133;28;20289;-63
2022/03/15 08:08:15;;;;;;;42.00;21.50;;;;;;;4.77;71.68;96381.28;5051396;28;20665;-67
2022/03/15 08:10:41;;;;;;;44.30;20.67;;;;;;;4.71;72.42;96344.56;5050968;28;20207;-68
2022/03/15 08:13:06;;;;;;;36.33;19.57;;;;;;;4.64;70.14;96396.03;5051326;28;20170;-64
2022/03/15 08:15:32;;;;;;;35.77;19.00;;;;;;;4.63;69.72;96404.44;5051015;28;20751;-64
2022/03/15 08:17:57;;;;;;;38.27;19.10;;;;;;;4.47;70.23;96383.16;5055046;28;20182;-63
2022/03/15 08:20:27;;;;;;;32.63;18.57;;;;;;;4.71;69.44;96394.94;5058008;23;20249;-64
2022/03/15 08:22:54;;;;;;;32.67;16.33;;;;;;;4.64;68.45;96397.72;5034719;28;20168;-70
2022/03/15 08:25:20;;;;;;;34.67;17.20;;;;;;;4.58;70.79;96338.31;5040913;23;20759;-68
2022/03/15 08:27:45;;;;;;;31.43;17.97;;;;;;;4.78;69.59;96373.72;5034709;28;20190;-64
2022/03/15 08:30:11;;;;;;;37.87;18.43;;;;;;;4.98;69.99;96356.19;5041139;23;20224;-68
2022/03/15 08:32:37;;;;;;;38.17;19.43;;;;;;;5.25;69.29;96369.50;5056789;23;20228;-69
2022/03/15 08:35:03;;;;;;;35.73;18.10;;;;;;;5.53;68.08;96402.09;5040918;23;20235;-63
2022/03/15 08:37:28;;;;;;;37.10;17.33;;;;;;;5.81;66.65;96438.84;5034659;28;20271;-63
2022/03/15 08:39:54;;;;;;;39.57;17.20;;;;;;;5.89;65.77;96446.16;5034582;28;20226;-64
2022/03/15 08:42:21;;;;;;;31.47;16.83;;;;;;;6.09;65.00;96450.44;5034644;28;20192;-67
2022/03/15 08:44:46;;;;;;;35.63;15.70;;;;;;;6.12;62.44;96491.53;5040523;23;20728;-66
2022/03/15 08:47:12;;;;;;;30.57;16.13;;;;;;;6.14;62.59;96467.06;5046814;23;20302;-65
2022/03/15 08:49:38;;;;;;;27.93;16.40;;;;;;;6.30;63.08;96437.00;5034248;28;20188;-64
2022/03/15 08:52:07;;;;;;;34.37;16.87;;;;;;;6.49;63.14;96427.78;5034049;28;20244;-65
2022/03/15 08:54:34;;;;;;;35.97;18.47;;;;;;;6.87;62.60;96438.88;5047051;23;20225;-69
2022/03/15 08:56:59;;;;;;;37.63;19.73;;;;;;;7.03;61.40;96460.09;5040618;23;20253;-65
2022/03/15 08:59:25;;;;;;;40.27;20.80;;;;;;;7.25;61.58;96443.94;5016141;28;20649;-71
2022/03/15 09:01:52;;;;;;;33.03;20.03;;;;;;;7.41;61.35;96442.38;5047507;23;20247;-65
2022/03/15 09:04:17;;;;;;;45.27;21.17;;;;;;;7.70;60.86;96451.22;5033850;28;20293;-65
2022/03/15 09:06:43;;;;;;;34.20;18.93;;;;;;;7.95;58.44;96494.00;5034374;28;20726;-69
2022/03/15 09:09:08;;;;;;;36.60;17.73;;;;;;;8.26;57.12;96510.28;5034204;28;20189;-64
2022/03/15 09:11:34;;;;;;;30.50;18.57;;;;;;;8.50;57.45;96502.47;5072327;23;20265;-72
2022/03/15 09:14:00;;;;;;;34.13;18.60;;;;;;;8.72;54.79;96549.56;5046820;23;20676;-72
2022/03/15 09:16:25;;;;;;;34.50;19.00;;;;;;;8.87;56.54;96482.88;5034358;28;20200;-67
2022/03/15 09:18:51;;;;;;;35.70;20.07;;;;;;;9.07;54.25;96540.25;5056520;23;20664;-65
2022/03/15 09:21:18;;;;;;;40.90;18.40;;;;;;;9.20;50.94;96605.56;5040845;23;20291;-71
2022/03/15 09:23:44;;;;;;;40.17;18.90;;;;;;;9.32;53.04;96507.69;5027692;23;20233;-73
2022/03/15 09:26:09;;;;;;;33.20;20.17;;;;;;;9.30;52.07;96517.09;5050892;23;20233;-64
2022/03/15 09:28:35;;;;;;;43.73;21.83;;;;;;;9.25;53.07;96497.03;5046342;23;20723;-67
2022/03/15 09:31:01;;;;;;;40.93;20.43;;;;;;;9.42;51.05;96536.78;5033537;28;20203;-69
2022/03/15 09:33:27;;;;;;;34.57;20.87;;;;;;;9.57;50.91;96541.13;5057360;23;20190;-68
2022/03/15 09:35:53;;;;;;;48.47;22.17;;;;;;;9.85;50.51;96551.50;5087346;23;20241;-71
2022/03/15 09:38:21;;;;;;;32.97;20.10;;;;;;;10.22;50.31;96527.53;5053085;28;20736;-70
2022/03/15 09:40:50;;;;;;;45.70;21.63;;;;;;;10.42;48.08;96574.81;5059269;23;20547;-64
2022/03/15 09:43:24;;;;;;;36.63;22.47;;;;;;;10.56;45.29;96636.75;5099825;23;20253;-64
2022/03/15 09:45:53;;;;;;;45.73;19.23;;;;;;;10.73;47.45;96549.34;5046092;23;20257;-66
2022/03/15 09:48:23;;;;;;;49.13;21.83;;;;;;;10.93;47.11;96544.78;5033337;28;20178;-64
2022/03/15 09:50:50;;;;;;;37.10;20.20;;;;;;;11.06;45.96;96569.56;5046224;23;20265;-65
2022/03/15 09:53:18;;;;;;;41.37;21.30;;;;;;;10.77;44.90;96520.28;5065347;23;20236;-64
2022/03/15 09:55:45;;;;;;;40.40;21.23;;;;;;;10.36;46.19;96456.47;5033088;28;20348;-65
2022/03/15 09:58:19;;;;;;;36.83;20.57;;;;;;;10.72;44.21;96489.22;5033276;28;20186;-72
2022/03/15 10:00:49;;;;;;;34.90;19.20;;;;;;;10.83;45.28;96441.91;5033185;28;20679;-66
2022/03/15 10:03:16;;;;;;;41.77;20.20;;;;;;;10.80;45.36;96433.63;5033006;28;20186;-65
2022/03/15 10:05:42;;;;;;;35.00;20.50;;;;;;;11.18;46.71;96396.59;5039003;23;20230;-65
2022/03/15 10:08:07;;;;;;;34.47;18.87;;;;;;;11.43;46.15;96398.50;5039010;23;20859;-64
2022/03/15 10:10:32;;;;;;;34.60;18.97;;;;;;;11.71;42.90;96455.38;5032536;28;20206;-69
2022/03/15 10:12:58;;;;;;;30.10;18.17;;;;;;;11.99;42.09;96448.59;5039068;23;20226;-66
2022/03/15 10:15:26;;;;;;;37.80;18.77;;;;;;;12.08;42.09;96431.00;5056729;23;20648;-68
2022/03/15 10:17:55;;;;;;;37.07;19.60;;;;;;;12.54;42.48;96418.72;5052647;28;20638;-67
2022/03/15 10:20:31;;;;;;;33.90;19.93;;;;;;;11.32;39.28;96460.25;5052228;28;20267;-64
2022/03/15 10:23:02;;;;;;;35.87;19.77;;;;;;;11.90;39.42;96444.88;5052251;28;20214;-68
2022/03/15 10:25:31;;;;;;;28.10;18.60;;;;;;;12.53;40.70;96404.31;5050939;28;20217;-64
2022/03/15 10:28:06;;;;;;;30.07;17.97;;;;;;;13.03;40.69;96401.81;5052419;28;20190;-63
2022/03/15 10:30:32;;;;;;;32.13;18.50;;;;;;;12.42;39.33;96427.97;5050875;28;20224;-65
2022/03/15 10:32:58;;;;;;;28.83;17.63;;;;;;;12.60;37.19;96479.56;5050922;28;20628;-67
2022/03/15 10:35:27;;;;;;;33.20;17.47;;;;;;;12.59;37.24;96443.03;5052264;28;20205;-63
2022/03/15 10:37:54;;;;;;;28.17;17.50;;;;;;;12.98;38.05;96413.28;5051975;28;20655;-65
2022/03/15 10:40:35;;;;;;;27.77;17.70;;;;;;;13.70;39.09;96379.41;5052029;28;20259;-65
2022/03/15 10:43:16;;;;;;;23.43;17.00;;;;;;;14.14;37.09;96433.38;5052014;28;20557;-66
2022/03/15 10:45:57;;;;;;;33.30;16.60;;;;;;;14.16;34.94;96431.53;5050827;28;20209;-65
2022/03/15 10:48:25;;;;;;;25.20;15.37;;;;;;;14.44;35.36;96399.72;5052190;28;20168;-64
2022/03/15 10:51:04;;;;;;;28.47;16.23;;;;;;;14.04;32.38;96442.59;5040127;23;20276;-63
2022/03/15 10:53:42;;;;;;;21.73;13.23;;;;;;;14.36;32.12;96422.50;5032263;28;20273;-64
2022/03/15 10:56:22;;;;;;;16.85;10.88;;;;;;;14.39;32.26;96387.25;5032063;28;20209;-63
2022/03/15 10:58:54;;;;;;;17.23;10.20;;;;;;;14.10;30.00;96431.94;5032150;28;20194;-63
2022/03/15 11:01:30;;;;;;;16.92;9.63;;;;;;;14.30;29.56;96387.94;5032296;28;20273;-62
2022/03/15 11:03:59;;;;;;;15.52;9.55;;;;;;;14.40;28.88;96347.13;5032304;28;20222;-63
2022/03/15 11:06:30;;;;;;;15.07;8.80;;;;;;;14.11;27.93;96344.06;5031745;28;20202;-65
2022/03/15 11:08:55;;;;;;;13.10;7.93;;;;;;;14.19;27.77;96334.94;5014197;28;20528;-66
2022/03/15 11:11:26;;;;;;;12.10;6.87;;;;;;;14.47;26.04;96323.53;5014035;28;20709;-64
2022/03/15 11:14:02;;;;;;;12.17;6.20;;;;;;;14.66;25.11;96292.28;5031998;28;20258;-61
2022/03/15 11:16:31;;;;;;;10.23;6.20;;;;;;;14.91;24.97;96251.91;5013876;28;20201;-63
2022/03/15 11:18:59;;;;;;;14.57;7.90;;;;;;;14.71;25.96;96219.31;5038342;23;20260;-62
2022/03/15 11:21:25;;;;;;;10.82;8.38;;;;;;;14.55;26.19;96205.22;5031519;28;20228;-69
2022/03/15 11:23:52;;;;;;;12.43;7.90;;;;;;;15.23;26.97;96174.31;5031631;28;20218;-66
2022/03/15 11:26:21;;;;;;;10.95;8.25;;;;;;;15.62;26.01;96212.19;5031772;28;20199;-65
2022/03/15 11:28:48;;;;;;;14.67;7.63;;;;;;;15.83;25.60;96190.78;5013897;28;20534;-62